sensor_id;sensor_type;location;lat;lon;timestamp;P1;durP1;ratioP1;P2;durP2;ratioP2
76978;SDS011;65911;47.502;19.148;2023-12-29T00:02:51;46.10;;;23.75;;
76978;SDS011;65911;47.502;19.148;2023-12-29T00:05:54;46.70;;;24.45;;
76978;SDS011;65911;47.502;19.148;2023-12-29T00:08:56;46.78;;;24.83;;
76978;SDS011;65911;47.502;19.148;2023-12-29T00:11:58;49.63;;;25.10;;
76978;SDS011;65911;47.502;19.148;2023-12-29T00:15:00;50.95;;;25.85;;
76978;SDS011;65911;47.502;19.148;2023-12-29T00:18:03;47.70;;;25.60;;
76978;SDS011;65911;47.502;19.148;2023-12-29T00:21:06;47.33;;;26.23;;
76978;SDS011;65911;47.502;19.148;2023-12-29T00:24:09;47.35;;;24.85;;
76978;SDS011;65911;47.502;19.148;2023-12-29T00:27:11;47.03;;;23.97;;
76978;SDS011;65911;47.502;19.148;2023-12-29T00:30:14;48.40;;;25.23;;
76978;SDS011;65911;47.502;19.148;2023-12-29T00:33:16;45.05;;;24.10;;
76978;SDS011;65911;47.502;19.148;2023-12-29T00:36:19;44.85;;;25.27;;
76978;SDS011;65911;47.502;19.148;2023-12-29T00:39:22;45.70;;;25.92;;
76978;SDS011;65911;47.502;19.148;2023-12-29T00:42:30;50.00;;;25.15;;
76978;SDS011;65911;47.502;19.148;2023-12-29T00:45:34;50.63;;;25.40;;
76978;SDS011;65911;47.502;19.148;2023-12-29T00:48:38;49.63;;;24.80;;
76978;SDS011;65911;47.502;19.148;2023-12-29T00:51:41;48.60;;;24.85;;
76978;SDS011;65911;47.502;19.148;2023-12-29T00:54:43;46.15;;;24.25;;
76978;SDS011;65911;47.502;19.148;2023-12-29T00:57:46;42.10;;;23.13;;
76978;SDS011;65911;47.502;19.148;2023-12-29T01:00:48;51.05;;;24.98;;
76978;SDS011;65911;47.502;19.148;2023-12-29T01:03:51;47.38;;;24.85;;
76978;SDS011;65911;47.502;19.148;2023-12-29T01:06:56;45.20;;;24.67;;
76978;SDS011;65911;47.502;19.148;2023-12-29T01:09:59;44.70;;;24.33;;
76978;SDS011;65911;47.502;19.148;2023-12-29T01:13:03;43.05;;;23.17;;
76978;SDS011;65911;47.502;19.148;2023-12-29T01:16:05;43.70;;;23.80;;
76978;SDS011;65911;47.502;19.148;2023-12-29T01:19:08;44.23;;;24.10;;
76978;SDS011;65911;47.502;19.148;2023-12-29T01:22:11;43.22;;;24.35;;
76978;SDS011;65911;47.502;19.148;2023-12-29T01:25:13;47.92;;;24.65;;
76978;SDS011;65911;47.502;19.148;2023-12-29T01:28:16;46.50;;;24.60;;
76978;SDS011;65911;47.502;19.148;2023-12-29T01:31:18;45.70;;;23.27;;
76978;SDS011;65911;47.502;19.148;2023-12-29T01:34:20;45.50;;;23.85;;
76978;SDS011;65911;47.502;19.148;2023-12-29T01:37:23;42.03;;;24.13;;
76978;SDS011;65911;47.502;19.148;2023-12-29T01:40:25;43.90;;;22.92;;
76978;SDS011;65911;47.502;19.148;2023-12-29T01:43:27;43.53;;;23.30;;
76978;SDS011;65911;47.502;19.148;2023-12-29T01:46:31;43.00;;;23.35;;
76978;SDS011;65911;47.502;19.148;2023-12-29T01:49:34;44.07;;;23.70;;
76978;SDS011;65911;47.502;19.148;2023-12-29T01:52:36;44.15;;;23.90;;
76978;SDS011;65911;47.502;19.148;2023-12-29T01:55:40;46.72;;;24.73;;
76978;SDS011;65911;47.502;19.148;2023-12-29T01:58:45;44.47;;;24.37;;
76978;SDS011;65911;47.502;19.148;2023-12-29T02:01:48;42.92;;;23.88;;
76978;SDS011;65911;47.502;19.148;2023-12-29T02:05:00;40.08;;;22.65;;
76978;SDS011;65911;47.502;19.148;2023-12-29T02:08:03;39.87;;;21.97;;
76978;SDS011;65911;47.502;19.148;2023-12-29T02:11:09;45.25;;;24.80;;
76978;SDS011;65911;47.502;19.148;2023-12-29T02:14:11;42.13;;;22.55;;
76978;SDS011;65911;47.502;19.148;2023-12-29T02:17:19;42.93;;;24.47;;
76978;SDS011;65911;47.502;19.148;2023-12-29T02:20:33;46.97;;;23.85;;
76978;SDS011;65911;47.502;19.148;2023-12-29T02:23:36;40.72;;;23.50;;
76978;SDS011;65911;47.502;19.148;2023-12-29T02:26:38;43.95;;;23.65;;
76978;SDS011;65911;47.502;19.148;2023-12-29T02:29:44;39.75;;;23.80;;
76978;SDS011;65911;47.502;19.148;2023-12-29T02:32:47;49.17;;;25.65;;
76978;SDS011;65911;47.502;19.148;2023-12-29T02:35:52;44.28;;;23.90;;
76978;SDS011;65911;47.502;19.148;2023-12-29T02:38:54;43.30;;;24.00;;
76978;SDS011;65911;47.502;19.148;2023-12-29T02:41:57;43.65;;;23.48;;
76978;SDS011;65911;47.502;19.148;2023-12-29T02:44:59;42.22;;;24.08;;
76978;SDS011;65911;47.502;19.148;2023-12-29T02:48:01;45.37;;;23.70;;
76978;SDS011;65911;47.502;19.148;2023-12-29T02:51:04;43.92;;;23.33;;
76978;SDS011;65911;47.502;19.148;2023-12-29T02:54:08;50.63;;;23.63;;
76978;SDS011;65911;47.502;19.148;2023-12-29T02:57:10;44.03;;;23.77;;
76978;SDS011;65911;47.502;19.148;2023-12-29T03:00:12;50.30;;;24.17;;
76978;SDS011;65911;47.502;19.148;2023-12-29T03:03:15;56.67;;;25.00;;
76978;SDS011;65911;47.502;19.148;2023-12-29T03:06:17;56.80;;;24.05;;
76978;SDS011;65911;47.502;19.148;2023-12-29T03:09:20;55.63;;;23.83;;
76978;SDS011;65911;47.502;19.148;2023-12-29T03:12:22;52.17;;;23.85;;
76978;SDS011;65911;47.502;19.148;2023-12-29T03:15:24;51.75;;;22.80;;
76978;SDS011;65911;47.502;19.148;2023-12-29T03:18:26;47.53;;;22.53;;
76978;SDS011;65911;47.502;19.148;2023-12-29T03:21:29;46.45;;;22.60;;
76978;SDS011;65911;47.502;19.148;2023-12-29T03:24:31;43.55;;;22.70;;
76978;SDS011;65911;47.502;19.148;2023-12-29T03:27:33;43.97;;;21.38;;
76978;SDS011;65911;47.502;19.148;2023-12-29T03:30:36;43.67;;;22.00;;
76978;SDS011;65911;47.502;19.148;2023-12-29T03:33:39;44.53;;;22.40;;
76978;SDS011;65911;47.502;19.148;2023-12-29T03:36:42;39.50;;;20.80;;
76978;SDS011;65911;47.502;19.148;2023-12-29T03:39:44;41.47;;;20.67;;
76978;SDS011;65911;47.502;19.148;2023-12-29T03:42:46;44.88;;;21.20;;
76978;SDS011;65911;47.502;19.148;2023-12-29T03:45:49;37.92;;;19.63;;
76978;SDS011;65911;47.502;19.148;2023-12-29T03:48:51;39.20;;;19.67;;
76978;SDS011;65911;47.502;19.148;2023-12-29T03:51:54;35.53;;;18.80;;
76978;SDS011;65911;47.502;19.148;2023-12-29T03:54:56;35.03;;;19.42;;
76978;SDS011;65911;47.502;19.148;2023-12-29T03:57:58;35.60;;;19.25;;
76978;SDS011;65911;47.502;19.148;2023-12-29T04:01:02;32.83;;;18.15;;
76978;SDS011;65911;47.502;19.148;2023-12-29T04:04:04;32.85;;;17.92;;
76978;SDS011;65911;47.502;19.148;2023-12-29T04:07:08;32.47;;;16.95;;
76978;SDS011;65911;47.502;19.148;2023-12-29T04:10:10;34.70;;;17.93;;
76978;SDS011;65911;47.502;19.148;2023-12-29T04:13:13;31.10;;;17.42;;
76978;SDS011;65911;47.502;19.148;2023-12-29T04:16:16;34.05;;;17.73;;
76978;SDS011;65911;47.502;19.148;2023-12-29T04:19:20;33.03;;;18.03;;
76978;SDS011;65911;47.502;19.148;2023-12-29T04:22:22;32.55;;;18.17;;
76978;SDS011;65911;47.502;19.148;2023-12-29T04:25:24;32.65;;;17.75;;
76978;SDS011;65911;47.502;19.148;2023-12-29T04:28:26;34.42;;;17.90;;
76978;SDS011;65911;47.502;19.148;2023-12-29T04:31:30;35.47;;;17.02;;
76978;SDS011;65911;47.502;19.148;2023-12-29T04:34:32;34.50;;;17.90;;
76978;SDS011;65911;47.502;19.148;2023-12-29T04:37:35;28.02;;;16.00;;
76978;SDS011;65911;47.502;19.148;2023-12-29T04:40:37;30.63;;;15.97;;
76978;SDS011;65911;47.502;19.148;2023-12-29T04:43:40;30.55;;;16.80;;
76978;SDS011;65911;47.502;19.148;2023-12-29T04:46:42;29.95;;;16.60;;
76978;SDS011;65911;47.502;19.148;2023-12-29T04:49:45;29.87;;;16.90;;
76978;SDS011;65911;47.502;19.148;2023-12-29T04:52:47;28.30;;;15.55;;
76978;SDS011;65911;47.502;19.148;2023-12-29T04:55:50;31.10;;;16.33;;
76978;SDS011;65911;47.502;19.148;2023-12-29T04:58:52;29.17;;;16.42;;
76978;SDS011;65911;47.502;19.148;2023-12-29T05:01:55;28.65;;;16.02;;
76978;SDS011;65911;47.502;19.148;2023-12-29T05:04:57;28.08;;;15.18;;
76978;SDS011;65911;47.502;19.148;2023-12-29T05:07:59;27.10;;;15.43;;
76978;SDS011;65911;47.502;19.148;2023-12-29T05:11:02;26.90;;;15.00;;
76978;SDS011;65911;47.502;19.148;2023-12-29T05:14:04;26.70;;;14.38;;
76978;SDS011;65911;47.502;19.148;2023-12-29T05:17:06;24.02;;;13.70;;
76978;SDS011;65911;47.502;19.148;2023-12-29T05:20:10;23.37;;;14.20;;
76978;SDS011;65911;47.502;19.148;2023-12-29T05:23:12;23.45;;;13.60;;
76978;SDS011;65911;47.502;19.148;2023-12-29T05:26:15;26.15;;;13.80;;
76978;SDS011;65911;47.502;19.148;2023-12-29T05:29:17;22.33;;;13.52;;
76978;SDS011;65911;47.502;19.148;2023-12-29T05:32:19;24.63;;;14.43;;
76978;SDS011;65911;47.502;19.148;2023-12-29T05:35:21;24.00;;;13.75;;
76978;SDS011;65911;47.502;19.148;2023-12-29T05:38:24;24.77;;;13.73;;
76978;SDS011;65911;47.502;19.148;2023-12-29T05:41:26;22.30;;;12.77;;
76978;SDS011;65911;47.502;19.148;2023-12-29T05:44:28;22.83;;;13.20;;
76978;SDS011;65911;47.502;19.148;2023-12-29T05:47:30;23.90;;;12.55;;
76978;SDS011;65911;47.502;19.148;2023-12-29T05:50:33;22.07;;;12.80;;
76978;SDS011;65911;47.502;19.148;2023-12-29T05:53:35;22.58;;;13.23;;
76978;SDS011;65911;47.502;19.148;2023-12-29T05:56:38;23.08;;;13.10;;
76978;SDS011;65911;47.502;19.148;2023-12-29T05:59:40;20.27;;;12.52;;
76978;SDS011;65911;47.502;19.148;2023-12-29T06:02:43;21.48;;;12.50;;
76978;SDS011;65911;47.502;19.148;2023-12-29T06:05:45;21.92;;;13.13;;
76978;SDS011;65911;47.502;19.148;2023-12-29T06:08:48;21.90;;;13.38;;
76978;SDS011;65911;47.502;19.148;2023-12-29T06:11:50;22.97;;;14.27;;
76978;SDS011;65911;47.502;19.148;2023-12-29T06:14:53;22.83;;;13.40;;
76978;SDS011;65911;47.502;19.148;2023-12-29T06:17:56;23.27;;;13.05;;
76978;SDS011;65911;47.502;19.148;2023-12-29T06:21:01;21.80;;;12.73;;
76978;SDS011;65911;47.502;19.148;2023-12-29T06:24:03;21.35;;;12.43;;
76978;SDS011;65911;47.502;19.148;2023-12-29T06:27:09;20.73;;;13.25;;
76978;SDS011;65911;47.502;19.148;2023-12-29T06:30:12;21.50;;;12.15;;
76978;SDS011;65911;47.502;19.148;2023-12-29T06:33:14;19.17;;;11.68;;
76978;SDS011;65911;47.502;19.148;2023-12-29T06:36:16;19.67;;;11.90;;
76978;SDS011;65911;47.502;19.148;2023-12-29T06:39:19;19.92;;;11.73;;
76978;SDS011;65911;47.502;19.148;2023-12-29T06:42:21;17.83;;;11.30;;
76978;SDS011;65911;47.502;19.148;2023-12-29T06:45:24;19.73;;;11.88;;
76978;SDS011;65911;47.502;19.148;2023-12-29T06:48:26;21.65;;;12.18;;
76978;SDS011;65911;47.502;19.148;2023-12-29T06:51:29;18.50;;;12.27;;
76978;SDS011;65911;47.502;19.148;2023-12-29T06:54:31;18.15;;;11.68;;
76978;SDS011;65911;47.502;19.148;2023-12-29T06:57:34;20.52;;;11.90;;
76978;SDS011;65911;47.502;19.148;2023-12-29T07:00:36;17.05;;;11.18;;
76978;SDS011;65911;47.502;19.148;2023-12-29T07:03:39;20.00;;;12.18;;
76978;SDS011;65911;47.502;19.148;2023-12-29T07:06:42;22.27;;;12.13;;
76978;SDS011;65911;47.502;19.148;2023-12-29T07:09:45;18.23;;;11.73;;
76978;SDS011;65911;47.502;19.148;2023-12-29T07:12:47;16.77;;;11.27;;
76978;SDS011;65911;47.502;19.148;2023-12-29T07:15:49;17.85;;;12.23;;
76978;SDS011;65911;47.502;19.148;2023-12-29T07:18:52;18.05;;;11.52;;
76978;SDS011;65911;47.502;19.148;2023-12-29T07:21:54;18.63;;;11.57;;
76978;SDS011;65911;47.502;19.148;2023-12-29T07:24:57;18.30;;;11.02;;
76978;SDS011;65911;47.502;19.148;2023-12-29T07:27:59;18.40;;;11.50;;
76978;SDS011;65911;47.502;19.148;2023-12-29T07:31:04;19.52;;;11.73;;
76978;SDS011;65911;47.502;19.148;2023-12-29T07:34:07;17.33;;;11.23;;
76978;SDS011;65911;47.502;19.148;2023-12-29T07:37:09;16.42;;;10.90;;
76978;SDS011;65911;47.502;19.148;2023-12-29T07:40:12;16.17;;;11.02;;
76978;SDS011;65911;47.502;19.148;2023-12-29T07:43:15;17.97;;;11.70;;
76978;SDS011;65911;47.502;19.148;2023-12-29T07:46:24;17.27;;;11.23;;
76978;SDS011;65911;47.502;19.148;2023-12-29T07:49:28;17.17;;;11.25;;
76978;SDS011;65911;47.502;19.148;2023-12-29T07:52:31;17.53;;;11.07;;
76978;SDS011;65911;47.502;19.148;2023-12-29T07:55:36;18.10;;;11.55;;
76978;SDS011;65911;47.502;19.148;2023-12-29T07:58:39;16.83;;;11.10;;
76978;SDS011;65911;47.502;19.148;2023-12-29T08:01:43;16.23;;;10.77;;
76978;SDS011;65911;47.502;19.148;2023-12-29T08:04:46;18.08;;;11.15;;
76978;SDS011;65911;47.502;19.148;2023-12-29T08:07:50;16.13;;;10.90;;
76978;SDS011;65911;47.502;19.148;2023-12-29T08:10:52;17.33;;;11.25;;
76978;SDS011;65911;47.502;19.148;2023-12-29T08:13:54;17.27;;;12.13;;
76978;SDS011;65911;47.502;19.148;2023-12-29T08:16:57;19.13;;;12.15;;
76978;SDS011;65911;47.502;19.148;2023-12-29T08:19:59;17.50;;;11.63;;
76978;SDS011;65911;47.502;19.148;2023-12-29T08:23:02;19.23;;;11.87;;
76978;SDS011;65911;47.502;19.148;2023-12-29T08:26:04;17.95;;;11.73;;
76978;SDS011;65911;47.502;19.148;2023-12-29T08:29:07;18.42;;;12.10;;
76978;SDS011;65911;47.502;19.148;2023-12-29T08:32:09;19.13;;;12.18;;
76978;SDS011;65911;47.502;19.148;2023-12-29T08:35:11;19.20;;;12.38;;
76978;SDS011;65911;47.502;19.148;2023-12-29T08:38:13;19.88;;;12.57;;
76978;SDS011;65911;47.502;19.148;2023-12-29T08:41:16;21.83;;;13.15;;
76978;SDS011;65911;47.502;19.148;2023-12-29T08:44:18;19.90;;;11.93;;
76978;SDS011;65911;47.502;19.148;2023-12-29T08:47:20;18.77;;;12.23;;
76978;SDS011;65911;47.502;19.148;2023-12-29T08:50:22;21.15;;;12.55;;
76978;SDS011;65911;47.502;19.148;2023-12-29T08:53:25;20.17;;;13.30;;
76978;SDS011;65911;47.502;19.148;2023-12-29T08:56:27;20.13;;;12.32;;
76978;SDS011;65911;47.502;19.148;2023-12-29T08:59:30;21.20;;;13.05;;
76978;SDS011;65911;47.502;19.148;2023-12-29T09:02:33;22.45;;;13.68;;
76978;SDS011;65911;47.502;19.148;2023-12-29T09:05:35;21.48;;;12.82;;
76978;SDS011;65911;47.502;19.148;2023-12-29T09:08:37;22.67;;;13.70;;
76978;SDS011;65911;47.502;19.148;2023-12-29T09:11:40;21.58;;;12.77;;
76978;SDS011;65911;47.502;19.148;2023-12-29T09:14:43;23.23;;;13.30;;
76978;SDS011;65911;47.502;19.148;2023-12-29T09:17:45;22.73;;;13.05;;
76978;SDS011;65911;47.502;19.148;2023-12-29T09:20:48;20.83;;;13.10;;
76978;SDS011;65911;47.502;19.148;2023-12-29T09:23:50;20.63;;;13.03;;
76978;SDS011;65911;47.502;19.148;2023-12-29T09:26:52;23.92;;;13.73;;
76978;SDS011;65911;47.502;19.148;2023-12-29T09:29:56;23.55;;;14.18;;
76978;SDS011;65911;47.502;19.148;2023-12-29T09:32:58;25.27;;;13.80;;
76978;SDS011;65911;47.502;19.148;2023-12-29T09:36:00;23.92;;;13.70;;
76978;SDS011;65911;47.502;19.148;2023-12-29T09:39:02;22.05;;;12.73;;
76978;SDS011;65911;47.502;19.148;2023-12-29T09:42:05;24.85;;;14.15;;
76978;SDS011;65911;47.502;19.148;2023-12-29T09:45:09;22.80;;;13.17;;
76978;SDS011;65911;47.502;19.148;2023-12-29T09:48:13;20.10;;;12.35;;
76978;SDS011;65911;47.502;19.148;2023-12-29T09:51:18;21.27;;;12.70;;
76978;SDS011;65911;47.502;19.148;2023-12-29T09:54:24;23.07;;;13.70;;
76978;SDS011;65911;47.502;19.148;2023-12-29T09:57:27;23.83;;;13.52;;
76978;SDS011;65911;47.502;19.148;2023-12-29T10:00:29;23.20;;;13.90;;
76978;SDS011;65911;47.502;19.148;2023-12-29T10:03:32;24.00;;;13.95;;
76978;SDS011;65911;47.502;19.148;2023-12-29T10:06:36;19.85;;;12.57;;
76978;SDS011;65911;47.502;19.148;2023-12-29T10:09:39;22.30;;;12.50;;
76978;SDS011;65911;47.502;19.148;2023-12-29T10:12:41;23.75;;;12.70;;
76978;SDS011;65911;47.502;19.148;2023-12-29T10:16:06;21.50;;;14.07;;
76978;SDS011;65911;47.502;19.148;2023-12-29T10:23:06;18.75;;;11.73;;
76978;SDS011;65911;47.502;19.148;2023-12-29T10:26:10;22.53;;;12.33;;
76978;SDS011;65911;47.502;19.148;2023-12-29T10:29:13;21.10;;;12.27;;
76978;SDS011;65911;47.502;19.148;2023-12-29T10:32:18;19.73;;;12.27;;
76978;SDS011;65911;47.502;19.148;2023-12-29T10:35:21;19.88;;;12.32;;
76978;SDS011;65911;47.502;19.148;2023-12-29T10:38:25;20.27;;;12.98;;
76978;SDS011;65911;47.502;19.148;2023-12-29T10:41:27;20.58;;;13.30;;
76978;SDS011;65911;47.502;19.148;2023-12-29T10:44:30;20.02;;;12.85;;
76978;SDS011;65911;47.502;19.148;2023-12-29T10:47:32;18.23;;;11.93;;
76978;SDS011;65911;47.502;19.148;2023-12-29T10:50:44;20.17;;;13.35;;
76978;SDS011;65911;47.502;19.148;2023-12-29T10:53:54;21.17;;;13.43;;
76978;SDS011;65911;47.502;19.148;2023-12-29T10:57:01;18.73;;;12.50;;
76978;SDS011;65911;47.502;19.148;2023-12-29T11:00:04;19.98;;;12.57;;
76978;SDS011;65911;47.502;19.148;2023-12-29T11:03:12;20.77;;;12.68;;
76978;SDS011;65911;47.502;19.148;2023-12-29T11:06:16;18.20;;;11.88;;
76978;SDS011;65911;47.502;19.148;2023-12-29T11:09:31;18.58;;;12.68;;
76978;SDS011;65911;47.502;19.148;2023-12-29T11:12:36;20.35;;;13.02;;
76978;SDS011;65911;47.502;19.148;2023-12-29T11:15:45;20.45;;;12.25;;
76978;SDS011;65911;47.502;19.148;2023-12-29T11:18:49;18.77;;;12.33;;
76978;SDS011;65911;47.502;19.148;2023-12-29T11:21:56;20.20;;;13.30;;
76978;SDS011;65911;47.502;19.148;2023-12-29T11:24:59;19.13;;;12.30;;
76978;SDS011;65911;47.502;19.148;2023-12-29T11:28:02;18.00;;;12.40;;
76978;SDS011;65911;47.502;19.148;2023-12-29T11:31:05;19.00;;;12.52;;
76978;SDS011;65911;47.502;19.148;2023-12-29T11:34:12;20.15;;;12.68;;
76978;SDS011;65911;47.502;19.148;2023-12-29T11:44:14;20.15;;;13.63;;
76978;SDS011;65911;47.502;19.148;2023-12-29T11:47:39;21.13;;;14.60;;
76978;SDS011;65911;47.502;19.148;2023-12-29T11:50:41;21.70;;;12.73;;
76978;SDS011;65911;47.502;19.148;2023-12-29T11:53:44;20.10;;;13.40;;
76978;SDS011;65911;47.502;19.148;2023-12-29T11:56:46;22.60;;;14.20;;
76978;SDS011;65911;47.502;19.148;2023-12-29T11:59:49;21.50;;;14.00;;
76978;SDS011;65911;47.502;19.148;2023-12-29T12:02:51;21.08;;;13.10;;
76978;SDS011;65911;47.502;19.148;2023-12-29T12:05:54;21.20;;;13.50;;
76978;SDS011;65911;47.502;19.148;2023-12-29T12:12:38;18.63;;;11.38;;
76978;SDS011;65911;47.502;19.148;2023-12-29T12:15:45;15.52;;;10.48;;
76978;SDS011;65911;47.502;19.148;2023-12-29T12:18:47;16.73;;;10.88;;
76978;SDS011;65911;47.502;19.148;2023-12-29T12:21:50;14.90;;;9.23;;
76978;SDS011;65911;47.502;19.148;2023-12-29T12:24:56;18.60;;;11.13;;
76978;SDS011;65911;47.502;19.148;2023-12-29T12:27:59;15.48;;;9.82;;
76978;SDS011;65911;47.502;19.148;2023-12-29T12:31:05;16.50;;;9.80;;
76978;SDS011;65911;47.502;19.148;2023-12-29T12:34:08;18.48;;;9.77;;
76978;SDS011;65911;47.502;19.148;2023-12-29T12:37:11;16.65;;;9.88;;
76978;SDS011;65911;47.502;19.148;2023-12-29T12:40:26;16.50;;;9.50;;
76978;SDS011;65911;47.502;19.148;2023-12-29T12:43:29;14.43;;;10.23;;
76978;SDS011;65911;47.502;19.148;2023-12-29T12:46:33;16.35;;;11.32;;
76978;SDS011;65911;47.502;19.148;2023-12-29T12:49:37;15.40;;;10.15;;
76978;SDS011;65911;47.502;19.148;2023-12-29T12:52:39;17.03;;;10.97;;
76978;SDS011;65911;47.502;19.148;2023-12-29T12:55:42;19.55;;;11.93;;
76978;SDS011;65911;47.502;19.148;2023-12-29T12:58:44;18.85;;;12.52;;
76978;SDS011;65911;47.502;19.148;2023-12-29T13:01:47;22.40;;;14.50;;
76978;SDS011;65911;47.502;19.148;2023-12-29T13:04:50;21.13;;;13.73;;
76978;SDS011;65911;47.502;19.148;2023-12-29T13:07:54;23.83;;;14.55;;
76978;SDS011;65911;47.502;19.148;2023-12-29T13:10:57;21.98;;;14.50;;
76978;SDS011;65911;47.502;19.148;2023-12-29T13:14:03;23.65;;;14.48;;
76978;SDS011;65911;47.502;19.148;2023-12-29T13:17:07;19.83;;;13.02;;
76978;SDS011;65911;47.502;19.148;2023-12-29T13:20:09;20.73;;;13.73;;
76978;SDS011;65911;47.502;19.148;2023-12-29T13:23:12;21.30;;;13.70;;
76978;SDS011;65911;47.502;19.148;2023-12-29T13:26:14;21.10;;;13.63;;
76978;SDS011;65911;47.502;19.148;2023-12-29T13:29:23;23.33;;;14.55;;
76978;SDS011;65911;47.502;19.148;2023-12-29T13:32:27;21.23;;;14.13;;
76978;SDS011;65911;47.502;19.148;2023-12-29T13:35:37;23.20;;;13.95;;
76978;SDS011;65911;47.502;19.148;2023-12-29T13:38:53;19.50;;;13.27;;
76978;SDS011;65911;47.502;19.148;2023-12-29T13:42:00;20.17;;;13.43;;
76978;SDS011;65911;47.502;19.148;2023-12-29T13:45:03;22.10;;;14.30;;
76978;SDS011;65911;47.502;19.148;2023-12-29T13:48:06;21.27;;;13.32;;
76978;SDS011;65911;47.502;19.148;2023-12-29T13:51:10;19.10;;;13.35;;
76978;SDS011;65911;47.502;19.148;2023-12-29T13:54:12;21.00;;;12.67;;
76978;SDS011;65911;47.502;19.148;2023-12-29T13:57:15;19.15;;;13.27;;
76978;SDS011;65911;47.502;19.148;2023-12-29T14:03:23;19.73;;;12.67;;
76978;SDS011;65911;47.502;19.148;2023-12-29T14:06:31;18.70;;;12.20;;
76978;SDS011;65911;47.502;19.148;2023-12-29T14:09:38;20.95;;;12.10;;
76978;SDS011;65911;47.502;19.148;2023-12-29T14:12:40;20.55;;;13.38;;
76978;SDS011;65911;47.502;19.148;2023-12-29T14:15:43;21.33;;;13.32;;
76978;SDS011;65911;47.502;19.148;2023-12-29T14:18:54;19.10;;;13.40;;
76978;SDS011;65911;47.502;19.148;2023-12-29T14:21:58;24.08;;;13.90;;
76978;SDS011;65911;47.502;19.148;2023-12-29T14:25:01;19.47;;;12.73;;
76978;SDS011;65911;47.502;19.148;2023-12-29T14:28:15;22.00;;;14.00;;
76978;SDS011;65911;47.502;19.148;2023-12-29T14:31:19;20.85;;;14.52;;
76978;SDS011;65911;47.502;19.148;2023-12-29T14:34:21;23.40;;;14.20;;
76978;SDS011;65911;47.502;19.148;2023-12-29T14:37:24;21.52;;;13.52;;
76978;SDS011;65911;47.502;19.148;2023-12-29T14:40:27;20.92;;;14.68;;
76978;SDS011;65911;47.502;19.148;2023-12-29T14:43:30;22.40;;;13.93;;
76978;SDS011;65911;47.502;19.148;2023-12-29T14:46:32;23.35;;;13.85;;
76978;SDS011;65911;47.502;19.148;2023-12-29T14:49:38;22.25;;;14.45;;
76978;SDS011;65911;47.502;19.148;2023-12-29T14:52:41;22.17;;;13.75;;
76978;SDS011;65911;47.502;19.148;2023-12-29T14:55:43;21.93;;;13.57;;
76978;SDS011;65911;47.502;19.148;2023-12-29T14:58:47;21.95;;;13.55;;
76978;SDS011;65911;47.502;19.148;2023-12-29T15:01:49;22.15;;;13.73;;
76978;SDS011;65911;47.502;19.148;2023-12-29T15:04:51;20.67;;;13.83;;
76978;SDS011;65911;47.502;19.148;2023-12-29T15:07:56;21.90;;;13.68;;
76978;SDS011;65911;47.502;19.148;2023-12-29T15:10:58;23.73;;;14.60;;
76978;SDS011;65911;47.502;19.148;2023-12-29T15:14:00;22.08;;;14.13;;
76978;SDS011;65911;47.502;19.148;2023-12-29T15:17:02;23.25;;;14.05;;
76978;SDS011;65911;47.502;19.148;2023-12-29T15:20:05;22.67;;;13.63;;
76978;SDS011;65911;47.502;19.148;2023-12-29T15:23:10;24.50;;;14.30;;
76978;SDS011;65911;47.502;19.148;2023-12-29T15:26:12;20.93;;;13.37;;
76978;SDS011;65911;47.502;19.148;2023-12-29T15:29:17;24.25;;;13.68;;
76978;SDS011;65911;47.502;19.148;2023-12-29T15:32:19;20.98;;;13.13;;
76978;SDS011;65911;47.502;19.148;2023-12-29T15:35:22;21.90;;;12.50;;
76978;SDS011;65911;47.502;19.148;2023-12-29T15:38:24;25.42;;;14.60;;
76978;SDS011;65911;47.502;19.148;2023-12-29T15:41:26;24.40;;;17.05;;
76978;SDS011;65911;47.502;19.148;2023-12-29T15:44:28;24.08;;;14.65;;
76978;SDS011;65911;47.502;19.148;2023-12-29T15:47:30;23.10;;;14.02;;
76978;SDS011;65911;47.502;19.148;2023-12-29T15:50:33;22.40;;;13.60;;
76978;SDS011;65911;47.502;19.148;2023-12-29T15:53:35;27.10;;;15.98;;
76978;SDS011;65911;47.502;19.148;2023-12-29T15:56:38;24.83;;;15.30;;
76978;SDS011;65911;47.502;19.148;2023-12-29T15:59:40;24.83;;;15.50;;
76978;SDS011;65911;47.502;19.148;2023-12-29T16:02:42;23.90;;;14.82;;
76978;SDS011;65911;47.502;19.148;2023-12-29T16:05:45;25.33;;;15.33;;
76978;SDS011;65911;47.502;19.148;2023-12-29T16:08:47;27.55;;;15.80;;
76978;SDS011;65911;47.502;19.148;2023-12-29T16:11:50;27.38;;;16.77;;
76978;SDS011;65911;47.502;19.148;2023-12-29T16:14:56;24.95;;;16.00;;
76978;SDS011;65911;47.502;19.148;2023-12-29T16:17:58;31.48;;;16.90;;
76978;SDS011;65911;47.502;19.148;2023-12-29T16:21:04;28.33;;;17.25;;
76978;SDS011;65911;47.502;19.148;2023-12-29T16:24:06;36.53;;;19.13;;
76978;SDS011;65911;47.502;19.148;2023-12-29T16:27:08;42.13;;;22.60;;
76978;SDS011;65911;47.502;19.148;2023-12-29T16:30:11;41.42;;;22.83;;
76978;SDS011;65911;47.502;19.148;2023-12-29T16:33:13;37.55;;;21.30;;
76978;SDS011;65911;47.502;19.148;2023-12-29T16:36:16;32.23;;;19.03;;
76978;SDS011;65911;47.502;19.148;2023-12-29T16:39:18;35.85;;;20.27;;
76978;SDS011;65911;47.502;19.148;2023-12-29T16:42:20;41.47;;;21.58;;
76978;SDS011;65911;47.502;19.148;2023-12-29T16:45:23;34.70;;;20.20;;
76978;SDS011;65911;47.502;19.148;2023-12-29T16:48:25;34.70;;;19.20;;
76978;SDS011;65911;47.502;19.148;2023-12-29T16:51:28;35.55;;;19.15;;
76978;SDS011;65911;47.502;19.148;2023-12-29T16:54:30;34.95;;;19.23;;
76978;SDS011;65911;47.502;19.148;2023-12-29T16:57:35;33.40;;;18.93;;
76978;SDS011;65911;47.502;19.148;2023-12-29T17:00:37;33.60;;;18.95;;
76978;SDS011;65911;47.502;19.148;2023-12-29T17:03:42;30.65;;;17.92;;
76978;SDS011;65911;47.502;19.148;2023-12-29T17:06:45;29.43;;;17.70;;
76978;SDS011;65911;47.502;19.148;2023-12-29T17:09:48;32.38;;;16.95;;
76978;SDS011;65911;47.502;19.148;2023-12-29T17:12:50;32.97;;;17.50;;
76978;SDS011;65911;47.502;19.148;2023-12-29T17:15:54;29.33;;;16.40;;
76978;SDS011;65911;47.502;19.148;2023-12-29T17:18:56;30.60;;;16.95;;
76978;SDS011;65911;47.502;19.148;2023-12-29T17:21:58;30.63;;;16.83;;
76978;SDS011;65911;47.502;19.148;2023-12-29T17:25:03;30.23;;;16.50;;
76978;SDS011;65911;47.502;19.148;2023-12-29T17:28:06;29.43;;;15.77;;
76978;SDS011;65911;47.502;19.148;2023-12-29T17:31:09;25.95;;;15.27;;
76978;SDS011;65911;47.502;19.148;2023-12-29T17:34:11;27.45;;;15.77;;
76978;SDS011;65911;47.502;19.148;2023-12-29T17:37:13;32.07;;;16.53;;
76978;SDS011;65911;47.502;19.148;2023-12-29T17:40:16;32.53;;;17.85;;
76978;SDS011;65911;47.502;19.148;2023-12-29T17:43:18;30.52;;;16.52;;
76978;SDS011;65911;47.502;19.148;2023-12-29T17:46:20;29.75;;;17.85;;
76978;SDS011;65911;47.502;19.148;2023-12-29T17:49:22;30.77;;;17.42;;
76978;SDS011;65911;47.502;19.148;2023-12-29T17:52:27;29.63;;;17.65;;
76978;SDS011;65911;47.502;19.148;2023-12-29T17:55:30;31.02;;;17.95;;